Time;durP1;ratioP1;P1;durP2;ratioP2;P2;SDS_P1;SDS_P2;PMS_P1;PMS_P2;Temp;Humidity;BMP_temperature;BMP_pressure;BME280_temperature;BME280_humidity;BME280_pressure;Samples;Min_cycle;Max_cycle;Signal;HPM_P1;HPM_P2
2023/06/09 00:02:06;;;;;;;3.85;2.90;;;;;;;17.84;nan;61382.44;4992048;28;20239;-57
2023/06/09 00:04:35;;;;;;;3.92;2.67;;;;;;;17.80;nan;61454.88;4991670;28;20172;-57
2023/06/09 00:07:02;;;;;;;3.75;2.58;;;;;;;17.76;nan;61394.03;4994633;28;20495;-58
2023/06/09 00:09:31;;;;;;;4.05;2.70;;;;;;;17.79;nan;61500.81;4995010;28;20231;-58
2023/06/09 00:11:57;;;;;;;5.50;2.85;;;;;;;17.42;nan;61317.44;4995073;28;20708;-58
2023/06/09 00:14:22;;;;;;;3.88;2.78;;;;;;;17.65;nan;61317.03;4995053;28;20256;-58
2023/06/09 00:16:48;;;;;;;4.43;2.58;;;;;;;17.66;nan;61385.34;4987784;28;20271;-59
2023/06/09 00:19:15;;;;;;;4.63;2.85;;;;;;;17.41;nan;61300.22;4995016;28;20570;-59
2023/06/09 00:21:44;;;;;;;3.72;2.60;;;;;;;17.53;nan;61308.59;4994770;28;20261;-58
2023/06/09 00:24:10;;;;;;;5.43;2.80;;;;;;;15.95;nan;61276.84;4994746;28;20173;-59
2023/06/09 00:26:35;;;;;;;3.85;2.58;;;;;;;17.45;nan;61594.59;4995176;28;20180;-57
2023/06/09 00:29:01;;;;;;;4.95;3.17;;;;;;;17.61;nan;61343.53;4994839;28;20255;-58
2023/06/09 00:31:26;;;;;;;4.18;2.95;;;;;;;17.25;nan;61251.75;4994848;28;20276;-57
2023/06/09 00:33:51;;;;;;;4.07;2.92;;;;;;;17.12;nan;61258.28;4994674;28;20176;-58
2023/06/09 00:36:17;;;;;;;5.35;2.90;;;;;;;17.06;nan;61403.25;4994482;28;20196;-58
2023/06/09 00:38:42;;;;;;;4.38;3.20;;;;;;;17.20;nan;61553.34;4994826;28;20181;-57
2023/06/09 00:41:07;;;;;;;4.80;3.13;;;;;;;17.05;nan;61523.44;4994370;28;20264;-58
2023/06/09 00:43:33;;;;;;;4.75;3.05;;;;;;;16.86;nan;61210.31;4994923;28;20173;-56
2023/06/09 00:46:01;;;;;;;4.93;3.30;;;;;;;17.07;nan;61257.25;4994523;28;20177;-59
2023/06/09 00:48:27;;;;;;;4.65;3.05;;;;;;;16.60;nan;61295.59;4994321;28;20188;-56
2023/06/09 00:50:52;;;;;;;6.15;2.92;;;;;;;16.83;nan;61184.28;4994418;28;20654;-58
2023/06/09 00:53:18;;;;;;;6.50;3.28;;;;;;;17.12;nan;61219.00;4987602;28;20266;-60
2023/06/09 00:55:43;;;;;;;6.88;3.22;;;;;;;16.64;nan;61269.19;4994653;28;20213;-59
2023/06/09 00:58:09;;;;;;;4.43;3.30;;;;;;;17.06;nan;61233.44;4994204;28;20268;-56
2023/06/09 01:00:35;;;;;;;4.30;2.83;;;;;;;17.03;nan;61154.66;4993785;28;20647;-57
2023/06/09 01:03:02;;;;;;;5.00;3.42;;;;;;;16.91;nan;61161.78;4992721;28;20184;-57
2023/06/09 01:05:38;;;;;;;4.07;3.15;;;;;;;16.51;nan;61068.78;4994000;28;20687;-57
2023/06/09 01:08:32;;;;;;;6.95;3.28;;;;;;;16.77;nan;61092.94;4994366;28;20181;-58
2023/06/09 01:11:12;;;;;;;9.07;3.47;;;;;;;16.52;nan;61216.34;4994541;28;20204;-58
2023/06/09 01:13:48;;;;;;;4.28;2.95;;;;;;;16.62;nan;61335.97;4994020;28;20192;-56
2023/06/09 01:16:22;;;;;;;5.38;3.25;;;;;;;16.63;nan;61146.81;4993659;28;20200;-58
2023/06/09 01:18:49;;;;;;;5.15;3.35;;;;;;;16.51;nan;61040.44;4993871;28;20193;-57
2023/06/09 01:21:35;;;;;;;4.68;2.83;;;;;;;16.47;nan;61020.47;4993946;28;20190;-57
2023/06/09 01:24:14;;;;;;;4.80;3.08;;;;;;;16.47;nan;61017.88;4993950;28;20706;-58
2023/06/09 01:26:40;;;;;;;4.85;3.13;;;;;;;16.56;nan;60960.97;4993632;28;20539;-58
2023/06/09 01:29:06;;;;;;;5.00;3.00;;;;;;;16.54;nan;61172.75;4993689;28;20177;-56
2023/06/09 01:31:33;;;;;;;5.30;2.95;;;;;;;16.42;nan;61099.91;4993959;28;20173;-59
2023/06/09 01:34:00;;;;;;;4.68;3.00;;;;;;;16.33;nan;61087.19;4993534;28;20181;-57
2023/06/09 01:36:27;;;;;;;4.65;3.42;;;;;;;15.54;nan;61076.63;4993335;28;20188;-59
2023/06/09 01:38:52;;;;;;;4.68;3.13;;;;;;;16.44;nan;61120.22;4993411;28;20204;-58
2023/06/09 01:41:18;;;;;;;7.05;3.38;;;;;;;16.51;nan;61184.28;4993186;28;20260;-58
2023/06/09 01:43:43;;;;;;;4.63;3.17;;;;;;;16.32;nan;61104.69;4993439;28;20169;-58
2023/06/09 01:46:09;;;;;;;5.18;3.08;;;;;;;15.91;nan;61110.03;4993445;28;20173;-58
2023/06/09 01:48:52;;;;;;;4.72;3.03;;;;;;;16.02;nan;61076.03;5008410;28;20177;-58
2023/06/09 01:51:41;;;;;;;5.03;3.47;;;;;;;15.99;nan;61234.44;4993495;28;20674;-59
2023/06/09 01:54:15;;;;;;;4.60;3.22;;;;;;;16.10;nan;61113.41;4993833;28;20245;-56
2023/06/09 01:56:46;;;;;;;6.75;3.30;;;;;;;15.69;nan;60985.38;4993412;28;20218;-58
2023/06/09 01:59:17;;;;;;;3.60;3.13;;;;;;;15.89;nan;61347.94;4993343;28;20256;-58
2023/06/09 02:01:46;;;;;;;5.57;3.58;;;;;;;15.73;nan;61159.28;4992719;28;20224;-57
2023/06/09 02:04:13;;;;;;;3.80;2.75;;;;;;;15.64;nan;61061.56;4990864;28;20631;-59
2023/06/09 02:06:40;;;;;;;5.10;3.50;;;;;;;15.91;nan;61048.19;4988580;28;20287;-57
2023/06/09 02:09:06;;;;;;;4.97;3.38;;;;;;;15.59;nan;61046.19;4992844;28;20184;-58
2023/06/09 02:11:31;;;;;;;6.40;3.10;;;;;;;15.38;nan;61153.81;4992845;28;20610;-56
2023/06/09 02:13:56;;;;;;;7.30;3.45;;;;;;;16.01;nan;61107.84;4992640;28;20214;-58
2023/06/09 02:16:24;;;;;;;3.95;2.85;;;;;;;15.94;nan;61167.50;4992073;28;20211;-58
2023/06/09 02:18:49;;;;;;;4.47;3.17;;;;;;;16.03;nan;61138.44;4992790;28;20200;-57
2023/06/09 02:21:15;;;;;;;5.15;3.15;;;;;;;14.46;nan;61223.97;4993006;28;20227;-56
2023/06/09 02:23:41;;;;;;;4.78;3.38;;;;;;;15.68;nan;61403.44;4993052;28;20261;-56
2023/06/09 02:26:06;;;;;;;5.22;3.28;;;;;;;14.80;nan;61168.69;4992620;28;20618;-56
2023/06/09 02:28:32;;;;;;;5.88;3.17;;;;;;;15.66;nan;61146.81;4992395;28;20171;-57
2023/06/09 02:30:58;;;;;;;5.38;3.47;;;;;;;15.52;nan;61167.06;4992319;28;20204;-58
2023/06/09 02:33:24;;;;;;;7.88;3.50;;;;;;;15.43;nan;61033.31;4992685;28;20264;-57
2023/06/09 02:35:49;;;;;;;4.95;3.08;;;;;;;15.29;nan;61012.41;4991388;28;20303;-56
2023/06/09 02:38:15;;;;;;;6.45;3.40;;;;;;;14.88;nan;60918.53;4991888;28;20248;-60
2023/06/09 02:40:46;;;;;;;5.43;3.42;;;;;;;14.92;nan;61061.91;4991945;28;20200;-55
2023/06/09 02:43:12;;;;;;;8.32;3.58;;;;;;;15.24;nan;61112.28;4990871;28;20184;-57
2023/06/09 02:45:37;;;;;;;7.20;3.90;;;;;;;15.38;nan;60986.50;4985304;28;20681;-58
2023/06/09 02:48:03;;;;;;;6.53;3.90;;;;;;;15.01;nan;60892.00;4992083;28;20209;-58
2023/06/09 02:50:28;;;;;;;5.03;3.42;;;;;;;14.79;nan;61222.13;4992017;28;20184;-56
2023/06/09 02:52:54;;;;;;;5.70;3.60;;;;;;;14.93;nan;60906.16;4992108;28;20191;-57
2023/06/09 02:55:20;;;;;;;7.43;4.22;;;;;;;15.21;nan;60959.66;4991907;28;20175;-58
2023/06/09 02:57:46;;;;;;;6.88;3.50;;;;;;;15.28;nan;60980.41;4992177;28;20641;-58
2023/06/09 03:00:12;;;;;;;6.22;3.67;;;;;;;15.56;nan;61101.47;4991433;28;20179;-58
2023/06/09 03:02:38;;;;;;;5.13;3.60;;;;;;;15.70;nan;60999.38;4992010;28;20227;-57
2023/06/09 03:05:05;;;;;;;4.57;3.30;;;;;;;16.51;nan;61151.31;4990642;28;20177;-56
2023/06/09 03:07:31;;;;;;;5.07;3.30;;;;;;;17.19;nan;61263.63;4991706;28;20207;-57
2023/06/09 03:09:57;;;;;;;5.85;3.67;;;;;;;17.59;nan;61413.59;4991923;28;20181;-58
2023/06/09 03:12:22;;;;;;;7.95;3.95;;;;;;;18.39;nan;61427.97;4992473;28;20199;-58
2023/06/09 03:14:48;;;;;;;5.13;3.35;;;;;;;18.61;nan;61563.56;4991998;28;20176;-58
2023/06/09 03:17:13;;;;;;;4.97;3.40;;;;;;;19.36;nan;61650.63;4992473;28;20236;-60
2023/06/09 03:19:39;;;;;;;5.85;3.60;;;;;;;19.57;nan;61518.94;4992574;28;20204;-58
2023/06/09 03:22:05;;;;;;;4.85;3.33;;;;;;;20.36;nan;61630.06;4992206;28;20173;-59
2023/06/09 03:24:33;;;;;;;5.38;3.22;;;;;;;21.40;nan;61783.81;4986014;28;20188;-58
2023/06/09 03:26:58;;;;;;;4.97;3.13;;;;;;;22.08;nan;61877.56;4992212;28;20189;-58
2023/06/09 03:29:24;;;;;;;4.90;3.63;;;;;;;22.20;nan;61828.72;4992169;28;20611;-58
2023/06/09 03:31:50;;;;;;;3.80;3.05;;;;;;;22.43;nan;61919.94;4990838;28;20633;-60
2023/06/09 03:34:15;;;;;;;7.18;3.88;;;;;;;22.89;nan;61974.28;4992706;28;20264;-60
2023/06/09 03:36:41;;;;;;;5.18;3.65;;;;;;;23.02;nan;61996.31;4992065;28;20798;-58
2023/06/09 03:39:07;;;;;;;4.47;3.38;;;;;;;23.70;nan;62026.75;4992335;28;20183;-57
2023/06/09 03:41:33;;;;;;;7.22;3.55;;;;;;;24.50;nan;62119.31;4994936;28;20540;-59
2023/06/09 03:43:58;;;;;;;4.97;3.28;;;;;;;21.56;nan;63775.56;4995700;28;20257;-59
2023/06/09 03:46:24;;;;;;;5.88;3.95;;;;;;;24.46;nan;62229.69;4995513;28;20177;-58
2023/06/09 03:48:51;;;;;;;5.72;3.67;;;;;;;23.91;nan;62140.84;4995649;28;20563;-59
2023/06/09 03:51:17;;;;;;;5.43;3.65;;;;;;;23.46;nan;62067.28;4995797;28;20180;-57
2023/06/09 03:53:42;;;;;;;6.30;4.28;;;;;;;23.15;nan;62024.72;4995491;28;20177;-60
2023/06/09 03:56:07;;;;;;;8.15;3.72;;;;;;;22.93;nan;62205.59;4995486;28;20696;-58
2023/06/09 03:58:41;;;;;;;5.03;3.63;;;;;;;23.53;nan;62176.41;4995575;28;20176;-60
2023/06/09 04:01:10;;;;;;;5.60;3.53;;;;;;;24.08;nan;62128.91;4994778;28;20230;-59
2023/06/09 04:03:39;;;;;;;6.47;4.07;;;;;;;25.14;nan;62232.91;4994906;28;20498;-59
2023/06/09 04:06:05;;;;;;;6.75;4.10;;;;;;;26.03;nan;62385.69;4995260;28;20192;-57
2023/06/09 04:08:31;;;;;;;5.40;3.65;;;;;;;26.55;nan;62462.31;4995060;28;20487;-60
2023/06/09 04:10:57;;;;;;;5.30;3.72;;;;;;;27.28;nan;62584.03;4995063;28;20180;-58
2023/06/09 04:13:22;;;;;;;5.38;3.65;;;;;;;26.78;nan;62719.41;4995294;28;20177;-58
2023/06/09 04:15:48;;;;;;;6.57;4.13;;;;;;;27.11;nan;62588.75;4994891;28;20216;-58
2023/06/09 04:18:13;;;;;;;6.22;3.90;;;;;;;26.91;nan;62579.00;4995214;28;20229;-58
2023/06/09 04:20:39;;;;;;;6.03;3.58;;;;;;;27.46;nan;62888.78;4995142;28;20223;-59
2023/06/09 04:23:08;;;;;;;6.35;3.65;;;;;;;27.17;nan;62551.03;4995253;28;20172;-56
2023/06/09 04:25:34;;;;;;;6.35;3.70;;;;;;;27.95;nan;62610.84;4994560;28;20295;-58
2023/06/09 04:28:02;;;;;;;5.60;3.40;;;;;;;28.27;nan;62691.03;4993589;28;20193;-61
2023/06/09 04:30:29;;;;;;;6.45;3.60;;;;;;;28.54;nan;62737.72;4992712;28;20181;-58
2023/06/09 04:33:00;;;;;;;5.55;3.60;;;;;;;28.53;nan;62728.72;4988615;28;20560;-58
2023/06/09 04:35:25;;;;;;;6.25;3.50;;;;;;;28.62;nan;62739.03;4994468;28;22078;-57
2023/06/09 04:37:51;;;;;;;4.18;3.08;;;;;;;27.80;nan;62746.03;4994448;28;20372;-58
2023/06/09 04:40:23;;;;;;;5.90;3.15;;;;;;;28.01;nan;62685.44;4993850;28;20279;-58
2023/06/09 04:42:55;;;;;;;6.40;3.58;;;;;;;27.97;nan;62734.00;4994442;28;20184;-59
2023/06/09 04:45:27;;;;;;;4.32;3.10;;;;;;;27.45;nan;62695.38;4994022;28;20549;-59
2023/06/09 04:47:57;;;;;;;4.43;3.30;;;;;;;27.63;nan;62613.63;4994567;28;20173;-59
2023/06/09 04:50:23;;;;;;;4.68;3.30;;;;;;;27.15;nan;62664.78;4993721;28;20181;-58
2023/06/09 04:52:49;;;;;;;4.75;3.15;;;;;;;26.66;nan;62752.84;4993204;28;20179;-58
2023/06/09 04:55:14;;;;;;;3.45;2.90;;;;;;;26.45;nan;62450.91;4994011;28;20173;-58
2023/06/09 04:57:40;;;;;;;6.40;3.53;;;;;;;26.26;nan;62482.16;4991624;28;20259;-58
2023/06/09 05:00:12;;;;;;;4.72;3.33;;;;;;;24.31;nan;62277.91;4993583;28;20231;-57
2023/06/09 05:02:39;;;;;;;4.68;3.25;;;;;;;26.65;nan;62471.13;4993587;28;20208;-57
2023/06/09 05:05:05;;;;;;;4.45;2.85;;;;;;;26.76;nan;62517.81;4993295;28;20647;-58
2023/06/09 05:07:30;;;;;;;6.70;3.10;;;;;;;27.09;nan;62495.22;4993320;28;20184;-58
2023/06/09 05:09:56;;;;;;;4.70;3.45;;;;;;;27.08;nan;62601.66;4993478;28;20213;-60
2023/06/09 05:12:21;;;;;;;5.97;3.60;;;;;;;27.19;nan;62605.81;4993179;28;20184;-58
2023/06/09 05:14:46;;;;;;;4.65;3.40;;;;;;;27.25;nan;62531.88;4986361;28;20180;-58
2023/06/09 05:17:12;;;;;;;6.50;3.33;;;;;;;27.38;nan;62558.72;4986311;28;20291;-59
2023/06/09 05:19:37;;;;;;;5.65;3.17;;;;;;;27.13;nan;62654.63;4987085;28;20260;-58
2023/06/09 05:22:03;;;;;;;5.63;3.10;;;;;;;27.54;nan;62605.94;4993464;28;20191;-56
2023/06/09 05:24:28;;;;;;;9.98;3.38;;;;;;;27.58;nan;62668.88;4985932;28;20184;-58
2023/06/09 05:26:54;;;;;;;4.38;2.97;;;;;;;27.90;nan;62747.00;4988927;28;20271;-60
2023/06/09 05:29:19;;;;;;;5.35;3.08;;;;;;;28.16;nan;62699.47;4991875;28;20260;-59
2023/06/09 05:31:44;;;;;;;4.90;3.35;;;;;;;28.56;nan;62766.34;4988160;28;20184;-56
2023/06/09 05:34:10;;;;;;;3.78;3.10;;;;;;;28.53;nan;62771.34;4993405;28;20643;-58
2023/06/09 05:36:36;;;;;;;3.85;2.95;;;;;;;28.32;nan;62807.19;4992772;28;20196;-58
2023/06/09 05:39:01;;;;;;;5.40;3.08;;;;;;;28.28;nan;62726.94;4993240;28;20246;-58
2023/06/09 05:41:27;;;;;;;6.57;3.13;;;;;;;26.96;nan;62648.25;4992565;28;20169;-57
2023/06/09 05:43:53;;;;;;;5.72;3.08;;;;;;;27.06;nan;62662.31;4993051;28;20620;-60
2023/06/09 05:46:19;;;;;;;5.18;3.30;;;;;;;26.53;nan;62434.41;4992910;28;20648;-58
2023/06/09 05:48:44;;;;;;;4.82;2.95;;;;;;;26.12;nan;62430.03;4990589;28;20184;-58
2023/06/09 05:51:10;;;;;;;7.47;3.38;;;;;;;25.55;nan;62289.59;4989070;28;20216;-59
2023/06/09 05:53:35;;;;;;;5.18;3.20;;;;;;;24.78;nan;62278.13;4987119;28;20565;-58
2023/06/09 05:56:02;;;;;;;7.28;3.22;;;;;;;24.28;nan;62156.91;4992969;28;20218;-58
2023/06/09 05:58:28;;;;;;;6.55;3.47;;;;;;;24.41;nan;62241.72;4984564;28;20223;-58
2023/06/09 06:00:57;;;;;;;4.97;3.17;;;;;;;24.12;nan;62079.19;4988780;28;20291;-59
2023/06/09 06:03:23;;;;;;;4.70;3.10;;;;;;;23.96;nan;62104.78;4984668;28;20523;-58
2023/06/09 06:05:48;;;;;;;6.18;3.13;;;;;;;24.01;nan;62118.31;4984909;28;20204;-58
2023/06/09 06:08:14;;;;;;;5.25;3.42;;;;;;;24.08;nan;62134.13;4984093;28;20193;-57
2023/06/09 06:10:39;;;;;;;5.25;3.25;;;;;;;23.73;nan;62186.16;4992733;28;20180;-57
2023/06/09 06:13:04;;;;;;;4.70;3.25;;;;;;;23.65;nan;62133.25;4991716;28;20187;-59
2023/06/09 06:15:30;;;;;;;4.07;3.10;;;;;;;23.74;nan;62049.56;4992905;28;20266;-58
2023/06/09 06:17:55;;;;;;;4.43;3.28;;;;;;;23.93;nan;62085.72;4993544;28;20532;-58
2023/06/09 06:20:21;;;;;;;3.92;2.85;;;;;;;23.62;nan;62046.34;4992575;28;20207;-59
2023/06/09 06:22:46;;;;;;;4.15;2.95;;;;;;;23.59;nan;62074.25;4990914;28;20263;-57
2023/06/09 06:25:13;;;;;;;5.10;3.25;;;;;;;23.90;nan;62101.16;4983309;28;20184;-59
2023/06/09 06:27:40;;;;;;;3.53;2.83;;;;;;;23.92;nan;62110.69;4990863;28;20189;-58
2023/06/09 06:30:08;;;;;;;4.65;3.63;;;;;;;23.46;nan;62053.66;4988291;28;20188;-59
2023/06/09 06:32:34;;;;;;;5.22;3.13;;;;;;;23.58;nan;62060.06;4984691;28;20264;-59
2023/06/09 06:35:00;;;;;;;5.15;3.00;;;;;;;23.41;nan;62051.13;4984155;28;20604;-59
2023/06/09 06:37:25;;;;;;;4.30;3.13;;;;;;;23.76;nan;62059.69;4990299;28;20204;-58
2023/06/09 06:39:50;;;;;;;4.63;3.17;;;;;;;23.82;nan;62174.97;4992611;28;20181;-57
2023/06/09 06:42:16;;;;;;;5.57;3.33;;;;;;;23.99;nan;62082.69;4991282;28;20177;-59
2023/06/09 06:44:41;;;;;;;6.28;3.42;;;;;;;24.12;nan;62209.19;4986820;28;20172;-60
2023/06/09 06:47:07;;;;;;;4.30;3.22;;;;;;;24.15;nan;62176.03;4992469;28;20271;-60
2023/06/09 06:49:32;;;;;;;6.43;3.38;;;;;;;23.50;nan;62113.00;4992034;28;20560;-57
2023/06/09 06:51:57;;;;;;;4.40;3.08;;;;;;;23.62;nan;62048.41;4992555;28;20188;-59
2023/06/09 06:54:23;;;;;;;5.40;3.45;;;;;;;23.47;nan;62063.19;4992363;28;20169;-58
2023/06/09 06:56:48;;;;;;;5.60;3.85;;;;;;;23.34;nan;62134.44;4992344;28;20243;-59
2023/06/09 06:59:13;;;;;;;5.63;3.30;;;;;;;23.30;nan;62036.00;4992282;28;20176;-58
2023/06/09 07:01:40;;;;;;;5.72;3.38;;;;;;;22.68;nan;61977.00;4992589;28;20671;-58
2023/06/09 07:04:06;;;;;;;4.85;3.35;;;;;;;22.98;nan;62023.06;4991831;28;20180;-58
2023/06/09 07:06:32;;;;;;;5.22;3.35;;;;;;;23.13;nan;62004.19;4992542;28;20524;-59
2023/06/09 07:08:58;;;;;;;5.40;3.40;;;;;;;22.92;nan;62011.59;4992231;28;20173;-58
2023/06/09 07:11:23;;;;;;;4.30;3.25;;;;;;;23.04;nan;62061.16;4992135;28;20180;-58
2023/06/09 07:13:51;;;;;;;5.72;3.30;;;;;;;22.86;nan;61994.31;4990088;28;20181;-58
2023/06/09 07:16:17;;;;;;;6.28;3.70;;;;;;;23.15;nan;62115.41;4992468;28;20300;-58
2023/06/09 07:18:42;;;;;;;4.43;3.42;;;;;;;23.59;nan;62084.69;5010759;28;20362;-58
2023/06/09 07:21:08;;;;;;;5.13;3.40;;;;;;;23.68;nan;62029.13;4986103;28;20192;-58
2023/06/09 07:23:33;;;;;;;5.00;3.20;;;;;;;24.08;nan;62037.53;4994846;28;20184;-58
2023/06/09 07:25:59;;;;;;;5.90;3.70;;;;;;;24.18;nan;62096.47;4993197;28;20184;-58
2023/06/09 07:28:24;;;;;;;7.85;3.22;;;;;;;24.37;nan;62274.28;4993383;28;20181;-57
2023/06/09 07:30:50;;;;;;;4.57;2.95;;;;;;;24.27;nan;62194.41;4995939;28;20180;-58
2023/06/09 07:33:16;;;;;;;5.30;3.50;;;;;;;24.42;nan;62118.00;4996026;28;20185;-59
2023/06/09 07:35:42;;;;;;;4.60;3.20;;;;;;;24.17;nan;62086.94;4995370;28;20593;-57
2023/06/09 07:38:08;;;;;;;6.18;3.30;;;;;;;24.35;nan;62169.56;4995922;28;20205;-58
2023/06/09 07:40:33;;;;;;;5.53;3.17;;;;;;;24.30;nan;62159.22;4995595;28;20623;-59
2023/06/09 07:42:59;;;;;;;4.40;3.30;;;;;;;24.79;nan;62211.28;4995664;28;20175;-58
2023/06/09 07:45:24;;;;;;;5.68;3.88;;;;;;;24.41;nan;62103.25;4994662;28;20208;-58
2023/06/09 07:47:50;;;;;;;5.88;3.63;;;;;;;24.29;nan;62149.66;4990745;28;20188;-59
2023/06/09 07:50:17;;;;;;;5.28;3.58;;;;;;;24.56;nan;62193.47;4995646;28;20208;-59
2023/06/09 07:52:43;;;;;;;4.18;3.42;;;;;;;24.55;nan;62197.59;4992415;28;20184;-59
2023/06/09 07:55:08;;;;;;;6.28;3.95;;;;;;;24.51;nan;62125.06;4996020;28;20181;-59
2023/06/09 07:57:34;;;;;;;7.57;3.47;;;;;;;24.51;nan;62285.03;4993449;28;20212;-60
2023/06/09 07:59:59;;;;;;;4.00;2.95;;;;;;;24.46;nan;62224.47;4990977;28;20223;-58
2023/06/09 08:02:25;;;;;;;4.05;2.83;;;;;;;23.69;nan;62267.72;4995356;28;20221;-58
2023/06/09 08:04:51;;;;;;;9.85;3.38;;;;;;;24.25;nan;62156.13;4995228;28;20181;-58
2023/06/09 08:07:16;;;;;;;6.82;3.17;;;;;;;24.37;nan;62263.28;4988998;28;20181;-59
2023/06/09 08:09:41;;;;;;;5.28;3.53;;;;;;;24.92;nan;62218.88;4988866;28;20184;-59
2023/06/09 08:12:07;;;;;;;5.32;3.50;;;;;;;25.32;nan;62311.00;4995420;28;20184;-60
2023/06/09 08:14:33;;;;;;;4.63;3.22;;;;;;;25.14;nan;62361.09;4995495;28;20304;-59
2023/06/09 08:16:58;;;;;;;5.63;3.70;;;;;;;25.58;nan;62332.25;4991950;28;20258;-59
2023/06/09 08:19:24;;;;;;;4.03;3.08;;;;;;;25.66;nan;62353.94;4991953;28;20180;-59
2023/06/09 08:21:49;;;;;;;5.45;3.25;;;;;;;25.28;nan;62384.34;4995220;28;20707;-58
2023/06/09 08:24:16;;;;;;;4.32;3.20;;;;;;;25.30;nan;62321.22;4995314;28;20605;-58
2023/06/09 08:26:41;;;;;;;5.63;3.10;;;;;;;25.46;nan;62260.97;4994961;28;20279;-58
2023/06/09 08:29:07;;;;;;;5.30;3.65;;;;;;;25.28;nan;62395.38;4995051;28;20316;-58
2023/06/09 08:31:33;;;;;;;4.70;3.20;;;;;;;25.27;nan;62368.06;4994988;28;20195;-60
2023/06/09 08:33:59;;;;;;;5.38;3.20;;;;;;;25.35;nan;62295.53;4995127;28;20617;-58
2023/06/09 08:36:25;;;;;;;4.57;3.10;;;;;;;25.52;nan;62312.31;4995272;28;20200;-58
2023/06/09 08:38:50;;;;;;;4.22;3.03;;;;;;;25.84;nan;62346.25;4995125;28;20577;-57
2023/06/09 08:41:16;;;;;;;5.63;3.00;;;;;;;26.07;nan;62424.31;4994951;28;20169;-61
2023/06/09 08:43:42;;;;;;;5.05;3.28;;;;;;;25.99;nan;62362.78;4992893;28;20211;-58
2023/06/09 08:46:10;;;;;;;4.03;2.92;;;;;;;26.13;nan;62323.75;4980306;28;20272;-59
2023/06/09 08:48:49;;;;;;;5.03;3.10;;;;;;;26.27;nan;62400.00;4986054;28;20188;-59
2023/06/09 08:51:16;;;;;;;4.90;3.45;;;;;;;26.50;nan;62561.44;4903477;28;20585;-58
2023/06/09 08:53:42;;;;;;;5.13;3.17;;;;;;;26.67;nan;62487.09;4469680;28;20918;-58
2023/06/09 08:56:08;;;;;;;5.40;3.30;;;;;;;23.31;nan;64043.06;4713483;28;20207;-59
2023/06/09 08:58:34;;;;;;;4.57;3.25;;;;;;;26.67;nan;62465.56;4994024;28;20237;-59
2023/06/09 09:00:59;;;;;;;6.65;3.53;;;;;;;26.27;nan;62646.34;4994141;28;20706;-58
2023/06/09 09:03:25;;;;;;;5.05;3.08;;;;;;;26.31;nan;62440.72;4993936;28;20180;-58
2023/06/09 09:05:50;;;;;;;5.55;3.13;;;;;;;26.43;nan;62490.53;4993895;28;20188;-57
2023/06/09 09:08:19;;;;;;;4.70;3.30;;;;;;;26.27;nan;62363.34;4993769;28;20177;-58
2023/06/09 09:10:47;;;;;;;4.93;3.30;;;;;;;26.71;nan;62535.69;4994045;28;20169;-60
2023/06/09 09:13:13;;;;;;;4.22;3.17;;;;;;;26.23;nan;62364.00;4989295;28;20184;-58
2023/06/09 09:15:51;;;;;;;3.55;2.78;;;;;;;26.18;nan;62399.63;4985165;28;20692;-59
2023/06/09 09:18:19;;;;;;;5.32;3.75;;;;;;;26.28;nan;62405.84;4987022;28;20203;-59
2023/06/09 09:20:44;;;;;;;4.78;3.40;;;;;;;26.39;nan;62489.16;4985382;28;20215;-59
2023/06/09 09:23:10;;;;;;;3.95;3.08;;;;;;;26.78;nan;62499.66;4979184;28;20601;-59
2023/06/09 09:25:36;;;;;;;8.75;3.88;;;;;;;27.13;nan;62638.28;4980316;28;20182;-58
2023/06/09 09:28:08;;;;;;;4.93;3.70;;;;;;;26.89;nan;62463.91;4987528;28;20580;-58
2023/06/09 09:30:57;;;;;;;5.82;3.72;;;;;;;27.25;nan;62715.03;4992287;28;20251;-58
2023/06/09 09:33:24;;;;;;;4.60;3.47;;;;;;;27.39;nan;62689.06;4981950;28;20185;-58
2023/06/09 09:35:55;;;;;;;5.47;3.55;;;;;;;27.09;nan;62502.53;4981431;28;20614;-58
2023/06/09 09:38:25;;;;;;;4.97;3.60;;;;;;;26.85;nan;62608.81;4980961;28;20213;-58
2023/06/09 09:40:52;;;;;;;5.95;3.50;;;;;;;27.05;nan;62592.41;4982675;28;20189;-58
2023/06/09 09:43:19;;;;;;;5.10;3.58;;;;;;;27.50;nan;62567.81;4979940;28;20181;-59
2023/06/09 09:45:47;;;;;;;6.05;3.92;;;;;;;27.51;nan;62618.84;4985255;28;20177;-58
2023/06/09 09:48:15;;;;;;;5.47;3.58;;;;;;;27.02;nan;62649.31;4984639;28;20183;-58
2023/06/09 09:50:43;;;;;;;7.63;3.65;;;;;;;26.98;nan;62681.44;4985870;28;20695;-59
2023/06/09 09:53:09;;;;;;;4.38;3.38;;;;;;;26.95;nan;62494.38;4993023;28;20195;-58
2023/06/09 09:55:36;;;;;;;5.28;3.65;;;;;;;26.59;nan;62598.00;4993449;28;20169;-59
2023/06/09 09:58:06;;;;;;;5.95;3.58;;;;;;;26.88;nan;62633.84;4993690;28;20192;-58
2023/06/09 10:00:35;;;;;;;6.32;4.18;;;;;;;26.87;nan;62577.59;4986473;28;20232;-58
2023/06/09 10:03:06;;;;;;;6.80;3.72;;;;;;;26.66;nan;62582.41;4993167;28;20191;-58
2023/06/09 10:05:35;;;;;;;5.38;3.97;;;;;;;26.66;nan;62556.19;4993323;28;20187;-58
2023/06/09 10:08:03;;;;;;;10.18;4.18;;;;;;;27.24;nan;62561.66;4986591;28;20215;-67
2023/06/09 10:10:30;;;;;;;5.95;3.90;;;;;;;27.44;nan;62581.91;4993332;28;20181;-58
2023/06/09 10:12:57;;;;;;;5.65;3.63;;;;;;;27.41;nan;62564.78;4992932;28;20184;-58
2023/06/09 10:15:24;;;;;;;8.05;4.70;;;;;;;27.29;nan;62514.31;4987230;28;20268;-58
2023/06/09 10:17:52;;;;;;;8.07;4.78;;;;;;;26.95;nan;62483.88;4986844;28;20181;-58
2023/06/09 10:20:18;;;;;;;8.82;4.30;;;;;;;26.48;nan;62431.31;4982081;28;20629;-59
2023/06/09 10:22:44;;;;;;;8.82;5.15;;;;;;;26.34;nan;62439.47;4985201;28;20661;-57
2023/06/09 10:25:12;;;;;;;8.77;4.70;;;;;;;25.94;nan;62355.03;4983379;28;20169;-59
2023/06/09 10:27:38;;;;;;;7.30;4.45;;;;;;;25.92;nan;62310.84;4990347;28;20557;-57
2023/06/09 10:30:05;;;;;;;8.77;4.22;;;;;;;26.11;nan;62394.25;4992713;28;20235;-57
2023/06/09 10:32:33;;;;;;;6.28;4.25;;;;;;;26.45;nan;62453.53;4986276;28;20307;-57
2023/06/09 10:35:01;;;;;;;6.45;4.28;;;;;;;26.47;nan;62392.88;4992521;28;20188;-58
2023/06/09 10:37:31;;;;;;;7.32;4.60;;;;;;;26.62;nan;62444.69;4991137;28;20208;-58
2023/06/09 10:40:09;;;;;;;6.22;4.35;;;;;;;26.99;nan;62544.13;4992075;28;20177;-57
2023/06/09 10:42:58;;;;;;;6.47;4.25;;;;;;;27.14;nan;62598.00;4992441;28;20171;-57
2023/06/09 10:45:47;;;;;;;6.57;4.07;;;;;;;26.91;nan;62624.19;4991999;28;20195;-58
2023/06/09 10:48:12;;;;;;;5.85;3.78;;;;;;;26.45;nan;62432.56;4992172;28;20183;-57
2023/06/09 10:50:38;;;;;;;6.70;3.80;;;;;;;26.66;nan;62428.28;4991841;28;20165;-57
2023/06/09 10:53:14;;;;;;;5.93;4.40;;;;;;;26.92;nan;62498.81;4992232;28;20181;-57
2023/06/09 10:55:39;;;;;;;5.05;3.78;;;;;;;27.29;nan;62658.66;4991983;28;20572;-57
2023/06/09 10:58:35;;;;;;;7.05;4.07;;;;;;;27.74;nan;62707.66;4992190;28;20180;-57
2023/06/09 11:01:06;;;;;;;4.90;3.70;;;;;;;27.44;nan;62537.28;4991875;28;20239;-57
2023/06/09 11:03:31;;;;;;;4.47;3.15;;;;;;;27.30;nan;62528.56;4991904;28;20176;-57
2023/06/09 11:06:00;;;;;;;6.00;3.50;;;;;;;26.93;nan;62500.53;4991838;28;20546;-57
2023/06/09 11:08:26;;;;;;;4.82;3.38;;;;;;;26.82;nan;62470.16;4991812;28;20172;-57
2023/06/09 11:10:51;;;;;;;4.38;3.13;;;;;;;26.97;nan;62515.59;4992322;28;20262;-58
2023/06/09 11:13:36;;;;;;;7.00;3.83;;;;;;;26.77;nan;62697.28;4992019;28;20537;-57
2023/06/09 11:16:02;;;;;;;5.97;3.67;;;;;;;26.93;nan;62558.25;4991896;28;20696;-57
2023/06/09 11:18:29;;;;;;;4.70;3.40;;;;;;;27.01;nan;62525.41;4992024;28;20176;-58
2023/06/09 11:21:16;;;;;;;5.47;3.85;;;;;;;27.05;nan;62682.16;4987019;28;20648;-58
2023/06/09 11:24:01;;;;;;;6.15;3.35;;;;;;;26.83;nan;62588.75;4989691;28;20186;-58
2023/06/09 11:26:28;;;;;;;6.22;3.60;;;;;;;27.09;nan;62552.38;4985469;28;20192;-57
2023/06/09 11:28:53;;;;;;;6.00;3.67;;;;;;;27.41;nan;62607.38;4991704;28;20198;-59
2023/06/09 11:31:19;;;;;;;4.22;3.22;;;;;;;27.75;nan;62666.16;4987116;28;20279;-58
2023/06/09 11:33:50;;;;;;;6.13;3.40;;;;;;;27.16;nan;62652.22;4984108;28;20177;-58
2023/06/09 11:36:25;;;;;;;5.18;3.30;;;;;;;25.95;nan;62536.88;4985300;28;20205;-57
2023/06/09 11:38:51;;;;;;;4.03;3.08;;;;;;;26.99;nan;62735.06;4998764;28;20192;-58
2023/06/09 11:41:21;;;;;;;4.47;3.20;;;;;;;27.18;nan;62541.69;4987117;28;20610;-58
2023/06/09 11:43:54;;;;;;;3.90;3.08;;;;;;;27.15;nan;62541.44;4980402;28;20575;-58
2023/06/09 11:46:20;;;;;;;3.80;3.13;;;;;;;26.87;nan;62491.03;4981604;28;20272;-58
2023/06/09 11:49:03;;;;;;;6.28;3.50;;;;;;;27.03;nan;62590.09;4989643;28;20193;-57
2023/06/09 11:51:28;;;;;;;6.70;3.65;;;;;;;26.75;nan;62407.09;4980612;28;20190;-57
2023/06/09 11:53:54;;;;;;;4.13;2.88;;;;;;;26.83;nan;62615.53;4984763;28;20275;-56